Bowen, Queensland

2:27 AM AEST on September 18, 2014 (GMT +1000)
Whitsunday | Change Station
CLOSE
Current Station
Airport
Location: Proserpine,
Elevation: 66 ft
Nearby Weather Stations

Elev 66 ft 20.49 °S, 148.55 °E | Updated 27 minutes ago

Clear
Clear
55 °F
Feels Like 55 °F
N
0
Wind Variable Wind from North

Today
High -- | Low -- °F
--% Chance of Precip.
Yesterday
High -- | Low -- °F
Precip. -- in
6:01 AM 6:02 PM
Waning Crescent, 35% visible
Pressure 30.01 in
Visibility 6.2 miles
Clouds
Dew Point 54 °F
Humidity 94%
Rainfall 0.00 in
Snow Depth Not available.
UV Not available.
Pollen Not available.
Air Quality Not available.
Flu Activity Not available.
METAR YBPN 171600Z AUTO 00000KT 9999 // NCD 13/12 Q1016

More Conditions Fewer Conditions

Pressure 30.01 in
Visibility 6.2 miles
Clouds
Dew Point 54 °F
Humidity 94%
Rainfall 0.00 in
Snow Depth Not available.
UV Not available.
Pollen Not available.
Air Quality Not available.
Flu Activity Not available.
METAR YBPN 171600Z AUTO 00000KT 9999 // NCD 13/12 Q1016

More Conditions Fewer Conditions

10-Day Weather Forecast

Almanac

Astronomy

Sep. 18, 2014 Rise Set
Actual Time 6:01 AM AEST 6:02 PM AEST
Civil Twilight 5:39 AM AEST 6:24 PM AEST
Nautical Twilight 5:13 AM AEST 6:49 PM AEST
Astronomical Twilight 4:47 AM AEST 7:15 PM AEST
Moon 1:40 AM AEST (9/18) 1:08 PM AEST (9/18)
Length of Visible Light 12h 45m
Length of Day
12h 01m
Tomorrow will be 1m 8s longer.
Waning Crescent, 35% of the Moon is Illuminated
Sep 17
Waning Crescent
Sep 24
New
Oct 1
First Quarter
Oct 8
Full
Oct 15
Last Quarter

Yesterday's Extremes

Country Highs Country Lows

Community

WunderPhotos

Upload Photos

1,754,100 photos uploaded!

Nearby

Snow Depth

Not available.

Earthquake Activity

City Distance Mag. Time & Date
No recent earthquake activity has been reported nearby.
Minimum magnitude displayed is 2.5.

Coastal Water Temperatures

Place Temperature
No Stations Reporting

Nearby Weather Stations